createdAt,value
2018-12-19T00:00:32.593Z,100171.82
2018-12-19T00:01:07.285Z,100170.17
2018-12-19T00:01:41.897Z,100172.73
2018-12-19T00:02:16.480Z,100177.84
2018-12-19T00:02:51.705Z,100172.73
2018-12-19T00:03:26.887Z,100165.00
2018-12-19T00:04:01.585Z,100169.28
2018-12-19T00:04:36.239Z,100162.95
2018-12-19T00:05:10.838Z,100159.58
2018-12-19T00:05:45.439Z,100170.23
2018-12-19T00:06:20.033Z,100164.22
2018-12-19T00:06:54.644Z,100162.99
2018-12-19T00:07:29.281Z,100159.52
2018-12-19T00:08:04.336Z,100166.77
2018-12-19T00:08:39.118Z,100163.31
2018-12-19T00:09:13.750Z,100161.16
2018-12-19T00:09:48.369Z,100164.94
2018-12-19T00:10:22.952Z,100156.84
2018-12-19T00:10:57.702Z,100163.73
2018-12-19T00:11:32.389Z,100158.69
2018-12-19T00:12:07.028Z,100162.14
2018-12-19T00:12:41.728Z,100170.70
2018-12-19T00:13:18.382Z,100169.05
2018-12-19T00:13:52.972Z,100170.75
2018-12-19T00:14:27.771Z,100170.70
2018-12-19T00:15:02.542Z,100162.57
2018-12-19T00:15:37.247Z,100171.13
2018-12-19T00:16:11.890Z,100168.58
2018-12-19T00:16:46.476Z,100165.66
2018-12-19T00:17:21.093Z,100160.59
2018-12-19T00:17:55.742Z,100163.14
2018-12-19T00:18:30.357Z,100168.16
2018-12-19T00:19:05.037Z,100163.90
2018-12-19T00:19:39.661Z,100163.95
2018-12-19T00:20:14.278Z,100169.52
2018-12-19T00:20:49.512Z,100165.69
2018-12-19T00:21:24.171Z,100162.29
2018-12-19T00:21:58.800Z,100161.02
2018-12-19T00:22:33.434Z,100165.70
2018-12-19T00:23:08.025Z,100169.14
2018-12-19T00:23:42.678Z,100166.11
2018-12-19T00:24:17.297Z,100162.71
2018-12-19T00:24:51.942Z,100166.55
2018-12-19T00:25:26.951Z,100154.20
2018-12-19T00:26:01.973Z,100156.33
2018-12-19T00:26:36.580Z,100157.17
2018-12-19T00:27:11.335Z,100150.80
2018-12-19T00:27:46.266Z,100154.20
2018-12-19T00:28:20.857Z,100155.05
2018-12-19T00:28:55.677Z,100152.92
2018-12-19T00:29:30.432Z,100149.52
2018-12-19T00:30:06.489Z,100153.73
2018-12-19T00:30:41.497Z,100152.06
2018-12-19T00:31:16.090Z,100152.03
2018-12-19T00:31:50.769Z,100152.88
2018-12-19T00:32:25.435Z,100154.59
2018-12-19T00:33:00.092Z,100153.73
2018-12-19T00:33:34.915Z,100147.81
2018-12-19T00:34:09.625Z,100149.09
2018-12-19T00:34:44.245Z,100145.27
2018-12-19T00:35:18.965Z,100150.38
2018-12-19T00:35:53.565Z,100155.44
2018-12-19T00:36:28.311Z,100150.75
2018-12-19T00:37:02.924Z,100152.02
2018-12-19T00:37:37.500Z,100150.33
2018-12-19T00:38:12.094Z,100148.62
2018-12-19T00:38:46.723Z,100146.02
2018-12-19T00:39:21.352Z,100145.53
2018-12-19T00:39:56.199Z,100143.45
2018-12-19T00:40:30.923Z,100137.92
2018-12-19T00:41:05.507Z,100139.63
2018-12-19T00:41:40.106Z,100143.84
2018-12-19T00:42:14.814Z,100141.71
2018-12-19T00:42:49.471Z,100142.14
2018-12-19T00:43:24.159Z,100144.27
2018-12-19T00:43:58.944Z,100143.41
2018-12-19T00:44:33.648Z,100142.97
2018-12-19T00:45:08.778Z,100145.09
2018-12-19T00:45:43.452Z,100142.13
2018-12-19T00:46:18.069Z,100145.53
2018-12-19T00:46:52.793Z,100144.69
2018-12-19T00:47:27.467Z,100146.81
2018-12-19T00:48:02.089Z,100144.73
2018-12-19T00:48:36.857Z,100144.26
2018-12-19T00:49:11.611Z,100138.73
2018-12-19T00:49:46.264Z,100135.75
2018-12-19T00:50:21.060Z,100123.02
2018-12-19T00:50:55.709Z,100128.13
2018-12-19T00:51:30.418Z,100128.94
2018-12-19T00:52:05.155Z,100130.69
2018-12-19T00:52:39.847Z,100124.55
2018-12-19T00:53:14.437Z,100126.67
2018-12-19T00:53:49.029Z,100135.61
2018-12-19T00:54:23.634Z,100130.95
2018-12-19T00:54:58.451Z,100123.32
2018-12-19T00:55:33.665Z,100132.70
2018-12-19T00:56:08.293Z,100131.41
2018-12-19T00:56:42.881Z,100126.31
2018-12-19T00:57:17.489Z,100125.45
2018-12-19T00:57:52.088Z,100122.05
2018-12-19T00:58:26.770Z,100123.33
2018-12-19T00:59:01.421Z,100121.67
2018-12-19T00:59:36.176Z,100125.51
2018-12-19T01:00:11.692Z,100122.54
2018-12-19T01:00:46.318Z,100121.69
2018-12-19T01:01:21.662Z,100114.44
2018-12-19T01:01:56.780Z,100119.93
2018-12-19T01:02:31.513Z,100123.75
2018-12-19T01:03:06.143Z,100122.86
2018-12-19T01:03:40.733Z,100117.37
2018-12-19T01:04:15.357Z,100119.92
2018-12-19T01:04:49.960Z,100117.38
2018-12-19T01:05:24.668Z,100111.41
2018-12-19T01:05:59.379Z,100109.28
2018-12-19T01:06:34.116Z,100113.12
2018-12-19T01:07:09.239Z,100108.86
2018-12-19T01:07:43.945Z,100102.48
2018-12-19T01:08:18.648Z,100110.14
2018-12-19T01:08:53.377Z,100116.09
2018-12-19T01:09:28.263Z,100114.77
2018-12-19T01:10:03.218Z,100113.48
2018-12-19T01:10:37.926Z,100112.67
2018-12-19T01:11:12.684Z,100113.48
2018-12-19T01:11:47.339Z,100112.19
2018-12-19T01:12:21.970Z,100108.30
2018-12-19T01:12:56.650Z,100105.75
2018-12-19T01:13:31.909Z,100100.27
2018-12-19T01:14:06.738Z,100107.03
2018-12-19T01:14:41.371Z,100108.31
2018-12-19T01:15:15.999Z,100109.16
2018-12-19T01:15:50.692Z,100113.72
2018-12-19T01:16:25.345Z,100106.11
2018-12-19T01:17:00.133Z,100110.80
2018-12-19T01:17:34.787Z,100112.12
2018-12-19T01:18:09.540Z,100109.14
2018-12-19T01:18:44.144Z,100118.95
2018-12-19T01:19:18.760Z,100111.63
2018-12-19T01:19:53.441Z,100117.09
2018-12-19T01:20:28.166Z,100115.47
2018-12-19T01:21:02.853Z,100121.86
2018-12-19T01:21:37.886Z,100118.03
2018-12-19T01:22:12.574Z,100117.66
2018-12-19T01:22:47.776Z,100113.84
2018-12-19T01:23:22.412Z,100120.08
2018-12-19T01:23:57.069Z,100114.18
2018-12-19T01:24:31.739Z,100112.05
2018-12-19T01:25:06.871Z,100110.79
2018-12-19T01:25:41.945Z,100105.73
2018-12-19T01:26:16.562Z,100112.99
2018-12-19T01:26:51.188Z,100118.15
2018-12-19T01:27:25.804Z,100129.22
2018-12-19T01:28:00.532Z,100121.16
2018-12-19T01:28:35.263Z,100124.97
2018-12-19T01:29:09.861Z,100119.02
2018-12-19T01:29:44.480Z,100123.70
2018-12-19T01:30:19.130Z,100124.13
2018-12-19T01:30:53.750Z,100127.97
2018-12-19T01:31:28.471Z,100132.23
2018-12-19T01:32:03.257Z,100133.97
2018-12-19T01:32:37.902Z,100136.53
2018-12-19T01:33:12.539Z,100139.51
2018-12-19T01:33:47.117Z,100134.83
2018-12-19T01:34:21.817Z,100131.84
2018-12-19T01:34:56.488Z,100131.86
2018-12-19T01:35:31.230Z,100135.68
2018-12-19T01:36:06.003Z,100130.09
2018-12-19T01:36:40.676Z,100135.27
2018-12-19T01:37:15.308Z,100135.68
2018-12-19T01:37:49.908Z,100131.80
2018-12-19T01:38:24.627Z,100128.86
2018-12-19T01:38:59.374Z,100129.77
2018-12-19T01:39:34.097Z,100138.66
2018-12-19T01:40:08.803Z,100137.81
2018-12-19T01:40:43.435Z,100134.83
2018-12-19T01:41:18.104Z,100138.24
2018-12-19T01:41:52.829Z,100139.95
2018-12-19T01:42:27.614Z,100133.08
2018-12-19T01:43:02.489Z,100131.73
2018-12-19T01:43:37.290Z,100132.21
2018-12-19T01:44:11.888Z,100127.52
2018-12-19T01:44:46.548Z,100131.38
2018-12-19T01:45:21.722Z,100130.58
2018-12-19T01:45:56.352Z,100132.70
2018-12-19T01:46:31.109Z,100129.28
2018-12-19T01:47:05.688Z,100121.20
2018-12-19T01:47:40.553Z,100119.88
2018-12-19T01:48:15.169Z,100130.08
2018-12-19T01:48:49.783Z,100126.67
2018-12-19T01:49:24.916Z,100121.55
2018-12-19T01:49:59.581Z,100123.14
2018-12-19T01:50:34.335Z,100123.57
2018-12-19T01:51:09.320Z,100123.56
2018-12-19T01:51:44.059Z,100127.33
2018-12-19T01:52:18.652Z,100128.19
2018-12-19T01:52:53.255Z,100128.61
2018-12-19T01:53:28.020Z,100123.50
2018-12-19T01:54:02.737Z,100121.00
2018-12-19T01:54:37.377Z,100115.91
2018-12-19T01:55:12.013Z,100118.40
2018-12-19T01:55:46.958Z,100118.02
2018-12-19T01:56:21.572Z,100117.97
2018-12-19T01:56:56.218Z,100118.45
2018-12-19T01:57:31.026Z,100109.09
2018-12-19T01:58:05.746Z,100104.76
2018-12-19T01:58:40.454Z,100109.02
2018-12-19T01:59:15.078Z,100104.38
2018-12-19T01:59:50.176Z,100106.53
2018-12-19T02:00:28.983Z,100107.38
2018-12-19T02:01:03.745Z,100109.52
2018-12-19T02:01:38.349Z,100112.50
2018-12-19T02:02:13.470Z,100103.97
2018-12-19T02:02:48.082Z,100105.66
2018-12-19T02:03:22.685Z,100108.22
2018-12-19T02:03:57.524Z,100102.75
2018-12-19T02:04:32.248Z,100113.34
2018-12-19T02:05:06.978Z,100112.86
2018-12-19T02:05:41.827Z,100111.15
2018-12-19T02:06:16.471Z,100122.66
2018-12-19T02:06:51.083Z,100118.03
2018-12-19T02:07:25.721Z,100122.70
2018-12-19T02:08:00.363Z,100121.44
2018-12-19T02:08:35.026Z,100126.55
2018-12-19T02:09:10.149Z,100126.98
2018-12-19T02:09:44.906Z,100127.39
2018-12-19T02:10:19.526Z,100117.59
2018-12-19T02:10:54.219Z,100116.31
2018-12-19T02:11:28.879Z,100113.75
2018-12-19T02:12:04.056Z,100113.27
2018-12-19T02:12:38.781Z,100117.55
2018-12-19T02:13:13.488Z,100119.30
2018-12-19T02:13:48.295Z,100121.44
2018-12-19T02:14:22.914Z,100112.12
2018-12-19T02:14:57.673Z,100116.76
2018-12-19T02:15:32.284Z,100115.10
2018-12-19T02:16:06.960Z,100119.36
2018-12-19T02:16:41.559Z,100114.67
2018-12-19T02:17:16.193Z,100112.55
2018-12-19T02:17:50.784Z,100117.67
2018-12-19T02:18:25.402Z,100112.15
2018-12-19T02:19:00.146Z,100109.59
2018-12-19T02:19:34.803Z,100107.03
2018-12-19T02:20:09.480Z,100112.92
2018-12-19T02:20:44.093Z,100107.74
2018-12-19T02:21:18.691Z,100107.31
2018-12-19T02:21:53.414Z,100106.83
2018-12-19T02:22:28.585Z,100106.44
2018-12-19T02:23:03.312Z,100106.02
2018-12-19T02:23:38.257Z,100097.86
2018-12-19T02:24:12.909Z,100101.75
2018-12-19T02:24:47.630Z,100106.45
2018-12-19T02:25:22.244Z,100115.41
2018-12-19T02:25:57.076Z,100125.69
2018-12-19T02:26:31.776Z,100133.80
2018-12-19T02:27:06.426Z,100129.16
2018-12-19T02:27:41.092Z,100129.96
2018-12-19T02:28:15.695Z,100133.73
2018-12-19T02:28:50.750Z,100129.41
2018-12-19T02:29:25.349Z,100120.45
2018-12-19T02:30:00.125Z,100121.78
2018-12-19T02:30:35.075Z,100121.38
2018-12-19T02:31:10.057Z,100124.29
2018-12-19T02:31:44.651Z,100122.22
2018-12-19T02:32:19.342Z,100121.37
2018-12-19T02:32:53.953Z,100120.53
2018-12-19T02:33:28.729Z,100118.40
2018-12-19T02:34:03.984Z,100118.40
2018-12-19T02:34:38.700Z,100111.63
2018-12-19T02:35:13.826Z,100113.68
2018-12-19T02:35:48.421Z,100109.02
2018-12-19T02:36:23.425Z,100107.30
2018-12-19T02:36:58.076Z,100109.01
2018-12-19T02:37:32.722Z,100108.10
2018-12-19T02:38:07.436Z,100102.91
2018-12-19T02:38:42.063Z,100109.34
2018-12-19T02:39:16.657Z,100108.92
2018-12-19T02:39:51.279Z,100114.03
2018-12-19T02:40:25.925Z,100120.02
2018-12-19T02:41:00.665Z,100116.17
2018-12-19T02:41:35.324Z,100107.02
2018-12-19T02:42:10.401Z,100099.43
2018-12-19T02:42:45.021Z,100104.59
2018-12-19T02:43:19.623Z,100110.56
2018-12-19T02:43:54.287Z,100114.45
2018-12-19T02:44:28.956Z,100111.07
2018-12-19T02:45:04.656Z,100103.84
2018-12-19T02:45:39.282Z,100101.75
2018-12-19T02:46:13.918Z,100107.67
2018-12-19T02:46:54.865Z,100104.26
2018-12-19T02:47:29.600Z,100107.23
2018-12-19T02:48:04.243Z,100109.36
2018-12-19T02:48:38.891Z,100108.52
2018-12-19T02:49:13.596Z,100102.97
2018-12-19T02:49:48.221Z,100104.23
2018-12-19T02:50:22.835Z,100100.42
2018-12-19T02:50:58.292Z,100104.59
2018-12-19T02:51:32.907Z,100099.05
2018-12-19T02:52:07.158Z,100098.65
2018-12-19T02:52:41.769Z,100094.30
2018-12-19T02:53:16.398Z,100089.58
2018-12-19T02:53:51.050Z,100087.83
2018-12-19T02:54:25.773Z,100095.94
2018-12-19T02:55:00.456Z,100092.59
2018-12-19T02:55:35.164Z,100088.82
2018-12-19T02:56:09.805Z,100087.56
2018-12-19T02:56:44.425Z,100092.26
2018-12-19T02:57:19.054Z,100092.73
2018-12-19T02:57:54.002Z,100081.65
2018-12-19T02:58:28.946Z,100079.97
2018-12-19T02:59:03.669Z,100084.64
2018-12-19T02:59:38.297Z,100085.59
2018-12-19T03:00:12.940Z,100083.94
2018-12-19T03:00:47.539Z,100086.42
2018-12-19T03:01:22.162Z,100075.36
2018-12-19T03:01:56.924Z,100079.97
2018-12-19T03:02:31.615Z,100075.70
2018-12-19T03:03:06.278Z,100076.54
2018-12-19T03:03:40.923Z,100076.61
2018-12-19T03:04:15.543Z,100075.37
2018-12-19T03:04:50.187Z,100071.93
2018-12-19T03:05:24.890Z,100027.08
2018-12-19T03:05:59.616Z,100073.13
2018-12-19T03:06:34.306Z,100075.27
2018-12-19T03:07:09.047Z,100072.34
2018-12-19T03:07:43.724Z,100070.60
2018-12-19T03:08:18.340Z,100070.69
2018-12-19T03:08:52.968Z,100079.20
2018-12-19T03:09:27.699Z,100076.70
2018-12-19T03:10:02.357Z,100087.72
2018-12-19T03:10:37.074Z,100085.64
2018-12-19T03:11:12.354Z,100087.19
2018-12-19T03:11:46.993Z,100085.44
2018-12-19T03:12:21.586Z,100082.93
2018-12-19T03:12:56.250Z,100084.28
2018-12-19T03:13:31.451Z,100082.53
2018-12-19T03:14:06.103Z,100082.17
2018-12-19T03:14:40.693Z,100087.34
2018-12-19T03:15:15.320Z,100091.63
2018-12-19T03:15:49.944Z,100095.46
2018-12-19T03:16:24.898Z,100095.46
2018-12-19T03:16:59.626Z,100088.69
2018-12-19T03:17:34.312Z,100088.28
2018-12-19T03:18:08.973Z,100087.85
2018-12-19T03:18:43.564Z,100086.52
2018-12-19T03:19:18.305Z,100087.37
2018-12-19T03:19:52.946Z,100083.04
2018-12-19T03:20:27.610Z,100088.14
2018-12-19T03:21:02.633Z,100085.15
2018-12-19T03:21:37.335Z,100083.04
2018-12-19T03:22:11.950Z,100081.33
2018-12-19T03:22:46.591Z,100084.31
2018-12-19T03:23:21.173Z,100080.40
2018-12-19T03:23:55.792Z,100088.92
2018-12-19T03:24:30.677Z,100086.48
2018-12-19T03:25:06.211Z,100088.16
2018-12-19T03:25:40.820Z,100085.59
2018-12-19T03:26:15.407Z,100083.88
2018-12-19T03:26:56.368Z,100080.89
2018-12-19T03:27:31.237Z,100080.09
2018-12-19T03:28:06.031Z,100080.54
2018-12-19T03:28:40.692Z,100079.62
2018-12-19T03:29:15.412Z,100077.92
2018-12-19T03:29:50.039Z,100078.34
2018-12-19T03:30:24.770Z,100078.78
2018-12-19T03:30:59.468Z,100080.09
2018-12-19T03:31:34.132Z,100084.81
2018-12-19T03:32:08.807Z,100073.38
2018-12-19T03:32:43.422Z,100077.20
2018-12-19T03:33:18.036Z,100084.01
2018-12-19T03:33:52.658Z,100076.78
2018-12-19T03:34:27.355Z,100079.62
2018-12-19T03:35:02.019Z,100080.53
2018-12-19T03:35:36.724Z,100079.27
2018-12-19T03:36:11.398Z,100086.08
2018-12-19T03:36:46.028Z,100080.45
2018-12-19T03:37:20.627Z,100083.88
2018-12-19T03:37:55.245Z,100080.91
2018-12-19T03:38:30.238Z,100094.16
2018-12-19T03:39:07.498Z,100088.20
2018-12-19T03:39:42.070Z,100089.07
2018-12-19T03:40:16.784Z,100086.78
2018-12-19T03:40:51.491Z,100087.27
2018-12-19T03:41:26.136Z,100081.33
2018-12-19T03:42:00.755Z,100086.48
2018-12-19T03:42:35.432Z,100084.80
2018-12-19T03:43:10.061Z,100081.88
2018-12-19T03:43:44.802Z,100085.30
2018-12-19T03:44:19.485Z,100081.89
2018-12-19T03:44:54.097Z,100073.44
2018-12-19T03:45:28.791Z,100085.36
2018-12-19T03:46:03.413Z,100076.42
2018-12-19T03:46:38.484Z,100071.33
2018-12-19T03:47:13.310Z,100074.78
2018-12-19T03:47:47.910Z,100072.67
2018-12-19T03:48:27.951Z,100070.97
2018-12-19T03:49:02.594Z,100075.27
2018-12-19T03:49:38.012Z,100074.36
2018-12-19T03:50:12.953Z,100079.47
2018-12-19T03:50:47.623Z,100081.61
2018-12-19T03:51:22.244Z,100075.23
2018-12-19T03:51:56.928Z,100083.78
2018-12-19T03:52:31.684Z,100086.29
2018-12-19T03:53:06.393Z,100088.42
2018-12-19T03:53:40.992Z,100085.44
2018-12-19T03:54:15.915Z,100083.73
2018-12-19T03:54:50.539Z,100085.38
2018-12-19T03:55:25.162Z,100083.65
2018-12-19T03:55:59.957Z,100086.22
2018-12-19T03:56:34.610Z,100089.20
2018-12-19T03:57:09.928Z,100084.50
2018-12-19T03:57:44.660Z,100088.77
2018-12-19T03:58:19.367Z,100087.48
2018-12-19T03:58:54.078Z,100084.52
2018-12-19T03:59:28.931Z,100079.41
2018-12-19T04:00:04.811Z,100075.58
2018-12-19T04:00:39.448Z,100072.59
2018-12-19T04:01:14.062Z,100080.62
2018-12-19T04:01:48.785Z,100074.66
2018-12-19T04:02:23.425Z,100074.28
2018-12-19T04:02:58.288Z,100074.71
2018-12-19T04:03:33.220Z,100072.52
2018-12-19T04:04:07.816Z,100079.70
2018-12-19T04:04:42.507Z,100078.43
2018-12-19T04:05:17.112Z,100079.70
2018-12-19T04:05:51.759Z,100077.61
2018-12-19T04:06:26.424Z,100082.73
2018-12-19T04:07:01.445Z,100076.78
2018-12-19T04:07:36.072Z,100078.92
2018-12-19T04:08:10.665Z,100083.17
2018-12-19T04:08:45.277Z,100081.83
2018-12-19T04:09:19.906Z,100084.43
2018-12-19T04:09:57.983Z,100082.30
2018-12-19T04:10:31.332Z,100075.93
2018-12-19T04:11:06.488Z,100079.75
2018-12-19T04:11:41.078Z,100080.13
2018-12-19T04:12:15.783Z,100073.38
2018-12-19T04:12:50.386Z,100068.69
2018-12-19T04:13:25.019Z,100075.92
2018-12-19T04:13:59.699Z,100080.17
2018-12-19T04:14:34.462Z,100081.33
2018-12-19T04:15:09.120Z,100076.65
2018-12-19T04:15:43.740Z,100075.37
2018-12-19T04:16:18.362Z,100079.69
2018-12-19T04:16:53.093Z,100085.66
2018-12-19T04:17:27.838Z,100069.05
2018-12-19T04:18:02.610Z,100074.20
2018-12-19T04:18:37.544Z,100076.27
2018-12-19T04:19:12.189Z,100076.28
2018-12-19T04:19:47.292Z,100075.91
2018-12-19T04:20:21.902Z,100076.69
2018-12-19T04:20:56.548Z,100077.08
2018-12-19T04:21:31.238Z,100077.92
2018-12-19T04:22:05.889Z,100074.98
2018-12-19T04:22:40.536Z,100075.00
2018-12-19T04:23:15.165Z,100072.02
2018-12-19T04:23:49.749Z,100075.86
2018-12-19T04:24:24.615Z,100083.16
2018-12-19T04:24:59.375Z,100077.20
2018-12-19T04:25:34.147Z,100080.55
2018-12-19T04:26:08.763Z,100074.64
2018-12-19T04:26:43.474Z,100080.60
2018-12-19T04:27:18.076Z,100075.93
2018-12-19T04:27:52.696Z,100081.03
2018-12-19T04:28:27.865Z,100083.59
2018-12-19T04:29:02.562Z,100078.06
2018-12-19T04:29:37.739Z,100079.63
2018-12-19T04:30:12.373Z,100080.09
2018-12-19T04:30:46.976Z,100068.52
2018-12-19T04:31:21.699Z,100059.64
2018-12-19T04:31:56.358Z,100063.07
2018-12-19T04:32:31.547Z,100069.45
2018-12-19T04:33:06.281Z,100064.78
2018-12-19T04:33:40.902Z,100052.02
2018-12-19T04:34:15.567Z,100058.81
2018-12-19T04:34:50.232Z,100056.31
2018-12-19T04:35:24.936Z,100068.59
2018-12-19T04:35:59.625Z,100063.50
2018-12-19T04:36:34.287Z,100067.77
2018-12-19T04:37:08.966Z,100059.66
2018-12-19T04:37:44.159Z,100058.80
2018-12-19T04:38:19.134Z,100057.95
2018-12-19T04:38:53.760Z,100061.70
2018-12-19T04:39:28.491Z,100074.41
2018-12-19T04:40:05.716Z,100074.42
2018-12-19T04:40:40.368Z,100071.08
2018-12-19T04:41:15.532Z,100076.64
2018-12-19T04:41:50.180Z,100079.25
2018-12-19T04:42:24.769Z,100086.08
2018-12-19T04:42:59.496Z,100076.65
2018-12-19T04:43:34.129Z,100082.23
2018-12-19T04:44:08.735Z,100087.35
2018-12-19T04:44:43.378Z,100084.36
2018-12-19T04:45:18.053Z,100084.73
2018-12-19T04:45:52.653Z,100070.66
2018-12-19T04:46:27.298Z,100074.08
2018-12-19T04:47:01.928Z,100075.80
2018-12-19T04:47:36.525Z,100065.58
2018-12-19T04:48:11.167Z,100069.41
2018-12-19T04:48:45.874Z,100066.91
2018-12-19T04:49:20.618Z,100072.03
2018-12-19T04:49:55.266Z,100071.66
2018-12-19T04:50:29.967Z,100080.10
2018-12-19T04:51:04.638Z,100081.75
2018-12-19T04:51:39.287Z,100073.17
2018-12-19T04:52:13.857Z,100076.62
2018-12-19T04:52:48.469Z,100074.48
2018-12-19T04:53:23.050Z,100075.28
2018-12-19T04:53:57.738Z,100071.88
2018-12-19T04:54:32.423Z,100071.89
2018-12-19T04:55:07.661Z,100071.07
2018-12-19T04:55:42.268Z,100072.66
2018-12-19T04:56:16.874Z,100065.04
2018-12-19T04:56:51.498Z,100064.60
2018-12-19T04:57:26.108Z,100064.63
2018-12-19T04:58:00.805Z,100064.68
2018-12-19T04:58:35.464Z,100062.06
2018-12-19T04:59:10.161Z,100069.56
2018-12-19T04:59:45.008Z,100063.67
2018-12-19T05:00:19.625Z,100058.59
2018-12-19T05:00:54.728Z,100063.27
2018-12-19T05:01:29.488Z,100062.05
2018-12-19T05:02:04.696Z,100062.91
2018-12-19T05:02:39.291Z,100065.91
2018-12-19T05:03:13.996Z,100059.11
2018-12-19T05:03:48.600Z,100059.15
2018-12-19T05:04:23.253Z,100062.52
2018-12-19T05:04:58.072Z,100065.45
2018-12-19T05:05:33.092Z,100065.88
2018-12-19T05:06:07.699Z,100064.61
2018-12-19T05:06:42.285Z,100066.73
2018-12-19T05:07:17.257Z,100061.63
2018-12-19T05:07:52.356Z,100063.75
2018-12-19T05:08:27.479Z,100064.55
2018-12-19T05:09:02.100Z,100069.25
2018-12-19T05:09:37.137Z,100068.80
2018-12-19T05:10:12.536Z,100069.20
2018-12-19T05:10:47.663Z,100067.09
2018-12-19T05:11:22.289Z,100066.67
2018-12-19T05:11:57.664Z,100072.62
2018-12-19T05:12:34.214Z,100077.67
2018-12-19T05:13:08.812Z,100076.39
2018-12-19T05:13:43.487Z,100070.86
2018-12-19T05:14:18.423Z,100070.44
2018-12-19T05:14:53.489Z,100072.15
2018-12-19T05:15:28.596Z,100073.73
2018-12-19T05:16:03.306Z,100074.11
2018-12-19T05:16:38.022Z,100069.41
2018-12-19T05:17:12.612Z,100070.31
2018-12-19T05:17:47.339Z,100069.98
2018-12-19T05:18:21.949Z,100078.53
2018-12-19T05:18:56.575Z,100080.74
2018-12-19T05:19:31.330Z,100075.28
2018-12-19T05:20:08.427Z,100082.11
2018-12-19T05:20:43.035Z,100080.87
2018-12-19T05:21:17.668Z,100077.77
2018-12-19T05:21:52.268Z,100079.95
2018-12-19T05:22:26.928Z,100078.69
2018-12-19T05:23:01.682Z,100083.80
2018-12-19T05:23:36.309Z,100076.14
2018-12-19T05:24:10.978Z,100075.68
2018-12-19T05:24:45.694Z,100076.11
2018-12-19T05:25:20.302Z,100073.93
2018-12-19T05:25:55.022Z,100068.81
2018-12-19T05:26:29.909Z,100068.01
2018-12-19T05:27:04.603Z,100067.16
2018-12-19T05:27:39.361Z,100073.50
2018-12-19T05:28:13.956Z,100076.90
2018-12-19T05:28:48.603Z,100070.52
2018-12-19T05:29:23.341Z,100073.12
2018-12-19T05:29:58.043Z,100075.70
2018-12-19T05:30:32.769Z,100071.36
2018-12-19T05:31:07.502Z,100080.30
2018-12-19T05:31:42.102Z,100070.92
2018-12-19T05:32:16.720Z,100079.02
2018-12-19T05:32:51.422Z,100079.80
2018-12-19T05:33:26.153Z,100069.58
2018-12-19T05:34:00.910Z,100075.95
2018-12-19T05:34:36.001Z,100074.67
2018-12-19T05:35:10.633Z,100075.52
2018-12-19T05:35:45.283Z,100080.05
2018-12-19T05:36:19.908Z,100077.94
2018-12-19T05:36:54.726Z,100077.53
2018-12-19T05:37:29.485Z,100069.48
2018-12-19T05:38:04.151Z,100075.34
2018-12-19T05:38:38.775Z,100072.83
2018-12-19T05:39:13.395Z,100076.23
2018-12-19T05:39:48.010Z,100075.88
2018-12-19T05:40:22.664Z,100070.84
2018-12-19T05:40:57.399Z,100066.94
2018-12-19T05:41:32.079Z,100068.11
2018-12-19T05:42:06.775Z,100069.82
2018-12-19T05:42:41.372Z,100062.58
2018-12-19T05:43:15.977Z,100071.13
2018-12-19T05:43:50.576Z,100069.03
2018-12-19T05:44:25.223Z,100070.70
2018-12-19T05:44:59.937Z,100068.19
2018-12-19T05:45:34.676Z,100058.14
2018-12-19T05:46:09.401Z,100056.36
2018-12-19T05:46:44.098Z,100061.56
2018-12-19T05:47:19.069Z,100056.43
2018-12-19T05:47:53.725Z,100059.39
2018-12-19T05:48:28.458Z,100052.16
2018-12-19T05:49:03.261Z,100055.24
2018-12-19T05:49:38.277Z,100054.84
2018-12-19T05:50:13.754Z,100053.55
2018-12-19T05:50:48.443Z,100055.88
2018-12-19T05:51:23.099Z,100056.78
2018-12-19T05:51:57.769Z,100064.55
2018-12-19T05:52:32.927Z,100061.00
2018-12-19T05:53:08.161Z,100060.92
2018-12-19T05:53:42.787Z,100072.12
2018-12-19T05:54:18.059Z,100073.06
2018-12-19T05:54:52.921Z,100071.02
2018-12-19T05:55:27.754Z,100077.43
2018-12-19T05:56:02.456Z,100070.27
2018-12-19T05:56:37.581Z,100079.63
2018-12-19T05:57:12.522Z,100079.22
2018-12-19T05:57:47.150Z,100081.00
2018-12-19T05:58:21.770Z,100081.06
2018-12-19T05:58:56.418Z,100080.22
2018-12-19T05:59:31.474Z,100081.94
2018-12-19T06:00:08.469Z,100076.41
2018-12-19T06:00:43.134Z,100076.83
2018-12-19T06:01:17.755Z,100081.08
2018-12-19T06:01:52.388Z,100071.59
2018-12-19T06:02:27.172Z,100072.47
2018-12-19T06:03:01.894Z,100067.72
2018-12-19T06:03:37.165Z,100075.02
2018-12-19T06:04:11.832Z,100066.06
2018-12-19T06:04:46.483Z,100062.59
2018-12-19T06:05:21.097Z,100055.58
2018-12-19T06:05:55.824Z,100051.62
2018-12-19T06:06:30.473Z,100054.69
2018-12-19T06:07:05.148Z,100061.55
2018-12-19T06:07:39.744Z,100064.12
2018-12-19T06:08:14.385Z,100064.45
2018-12-19T06:08:49.061Z,100071.70
2018-12-19T06:09:23.730Z,100075.17
2018-12-19T06:10:05.075Z,100075.63
2018-12-19T06:10:39.708Z,100075.64
2018-12-19T06:11:14.396Z,100071.25
2018-12-19T06:11:48.989Z,100069.16
2018-12-19T06:12:24.151Z,100074.77
2018-12-19T06:12:58.880Z,100069.74
2018-12-19T06:13:33.631Z,100067.58
2018-12-19T06:14:08.241Z,100065.05
2018-12-19T06:14:42.889Z,100064.17
2018-12-19T06:15:17.493Z,100072.42
2018-12-19T06:15:52.127Z,100068.28
2018-12-19T06:16:26.862Z,100070.05
2018-12-19T06:17:01.549Z,100076.91
2018-12-19T06:17:36.265Z,100076.05
2018-12-19T06:18:10.891Z,100073.08
2018-12-19T06:18:45.609Z,100065.91
2018-12-19T06:19:20.241Z,100072.29
2018-12-19T06:19:54.894Z,100072.29
2018-12-19T06:20:29.692Z,100065.41
2018-12-19T06:21:04.979Z,100068.70
2018-12-19T06:21:39.602Z,100070.48
2018-12-19T06:22:14.214Z,100062.41
2018-12-19T06:22:48.812Z,100068.80
2018-12-19T06:23:23.430Z,100067.06
2018-12-19T06:23:58.144Z,100063.67
2018-12-19T06:24:32.961Z,100070.05
2018-12-19T06:25:08.055Z,100063.24
2018-12-19T06:25:43.147Z,100061.89
2018-12-19T06:26:17.877Z,100061.89
2018-12-19T06:26:52.461Z,100056.82
2018-12-19T06:27:27.100Z,100054.73
2018-12-19T06:28:01.790Z,100051.38
2018-12-19T06:28:36.402Z,100052.91
2018-12-19T06:29:10.992Z,100059.34
2018-12-19T06:29:45.630Z,100053.36
2018-12-19T06:30:20.564Z,100055.91
2018-12-19T06:30:55.218Z,100052.49
2018-12-19T06:31:29.865Z,100051.22
2018-12-19T06:32:05.006Z,100049.09
2018-12-19T06:32:40.005Z,100048.11
2018-12-19T06:33:14.632Z,100048.98
2018-12-19T06:33:49.624Z,100044.06
2018-12-19T06:34:24.220Z,100044.93
2018-12-19T06:34:58.842Z,100038.33
2018-12-19T06:35:33.476Z,100029.26
2018-12-19T06:36:08.101Z,100035.73
2018-12-19T06:36:42.722Z,100041.37
2018-12-19T06:37:17.370Z,100039.20